createdAt,value
2019-05-05T00:03:28.280Z,3.63
2019-05-05T00:08:35.872Z,3.73
2019-05-05T00:13:49.014Z,4.55
2019-05-05T00:18:57.318Z,4.30
2019-05-05T00:24:04.714Z,4.30
2019-05-05T00:29:14.873Z,4.73
2019-05-05T00:34:24.322Z,4.53
2019-05-05T00:39:31.006Z,4.03
2019-05-05T00:44:38.183Z,5.13
2019-05-05T00:49:49.417Z,4.70
2019-05-05T00:54:56.119Z,4.00
2019-05-05T01:00:09.630Z,3.53
2019-05-05T01:05:51.263Z,3.87
2019-05-05T01:10:59.111Z,3.70
2019-05-05T01:16:06.863Z,3.77
2019-05-05T01:21:16.913Z,3.70
2019-05-05T01:26:24.970Z,3.63
2019-05-05T01:31:34.529Z,3.43
2019-05-05T01:36:41.542Z,6.67
2019-05-05T01:41:54.177Z,8.03
2019-05-05T01:47:01.300Z,4.33
2019-05-05T01:52:08.552Z,5.70
2019-05-05T01:57:15.734Z,4.65
2019-05-05T02:02:24.934Z,5.53
2019-05-05T02:07:34.259Z,4.73
2019-05-05T02:12:41.654Z,5.00
2019-05-05T02:17:49.164Z,5.20
2019-05-05T02:22:56.414Z,4.77
2019-05-05T02:28:04.470Z,5.40
2019-05-05T02:33:15.720Z,4.63
2019-05-05T02:38:26.122Z,5.25
2019-05-05T02:43:34.445Z,5.20
2019-05-05T02:48:45.036Z,5.13
2019-05-05T02:53:54.184Z,4.63
2019-05-05T02:59:04.395Z,4.63
2019-05-05T03:04:14.081Z,5.10
2019-05-05T03:09:24.410Z,4.28
2019-05-05T03:14:34.156Z,4.67
2019-05-05T03:19:41.501Z,4.97
2019-05-05T03:24:49.258Z,5.13
2019-05-05T03:29:56.542Z,6.03
2019-05-05T03:35:05.162Z,5.10
2019-05-05T03:40:20.691Z,4.80
2019-05-05T03:45:44.530Z,5.13
2019-05-05T03:50:51.627Z,4.67
2019-05-05T03:55:59.199Z,4.90
2019-05-05T04:01:35.439Z,4.40
2019-05-05T04:06:44.487Z,4.53
2019-05-05T04:11:53.769Z,4.57
2019-05-05T04:17:22.078Z,4.93
2019-05-05T04:22:34.086Z,4.10
2019-05-05T04:27:40.680Z,4.37
2019-05-05T04:32:47.880Z,4.10
2019-05-05T04:37:55.021Z,4.33
2019-05-05T04:43:03.877Z,4.50
2019-05-05T04:48:15.292Z,4.10
2019-05-05T04:53:27.625Z,3.73
2019-05-05T04:58:49.055Z,4.43
2019-05-05T05:04:17.372Z,3.53
2019-05-05T05:09:24.602Z,3.33
2019-05-05T05:14:33.553Z,2.97
2019-05-05T05:19:40.433Z,3.40
2019-05-05T05:24:47.540Z,2.90
2019-05-05T05:29:54.585Z,3.00
2019-05-05T05:35:03.553Z,2.80
2019-05-05T05:40:19.002Z,2.67
2019-05-05T05:45:54.270Z,2.53
2019-05-05T05:51:04.730Z,2.03
2019-05-05T05:56:13.508Z,1.73
2019-05-05T06:01:20.612Z,1.70
2019-05-05T06:06:27.771Z,1.47
2019-05-05T06:11:34.897Z,1.50
2019-05-05T06:16:42.022Z,1.53
2019-05-05T06:21:49.216Z,1.10
2019-05-05T06:26:56.872Z,1.43
2019-05-05T06:32:04.147Z,1.23
2019-05-05T06:37:14.324Z,1.20
2019-05-05T06:42:27.913Z,1.33
2019-05-05T06:47:39.177Z,1.60
2019-05-05T06:52:47.196Z,1.03
2019-05-05T06:57:54.300Z,1.30
2019-05-05T07:03:01.478Z,1.17
2019-05-05T07:08:08.665Z,1.80
2019-05-05T07:13:15.789Z,1.50
2019-05-05T07:18:24.683Z,1.35
2019-05-05T07:23:33.867Z,1.30
2019-05-05T07:28:40.332Z,1.23
2019-05-05T07:33:47.621Z,1.40
2019-05-05T07:38:54.835Z,1.50
2019-05-05T07:44:01.930Z,1.30
2019-05-05T07:49:08.956Z,1.50
2019-05-05T07:54:16.567Z,1.73
2019-05-05T07:59:23.926Z,1.52
2019-05-05T08:04:31.282Z,1.30
2019-05-05T08:09:38.278Z,1.23
2019-05-05T08:14:45.455Z,1.10
2019-05-05T08:19:56.465Z,1.10
2019-05-05T08:25:11.932Z,1.07
2019-05-05T08:30:28.834Z,2.50
2019-05-05T08:35:36.038Z,1.10
2019-05-05T08:40:43.964Z,1.30
2019-05-05T08:45:51.081Z,1.40
2019-05-05T08:50:58.286Z,1.10
2019-05-05T08:56:05.864Z,1.50
2019-05-05T09:01:14.943Z,1.10
2019-05-05T09:06:21.659Z,1.10
2019-05-05T09:11:28.709Z,6.87
2019-05-05T09:16:35.784Z,1.60
2019-05-05T09:21:44.799Z,1.87
2019-05-05T09:27:14.255Z,1.10
2019-05-05T09:32:24.271Z,4.83
2019-05-05T09:37:31.402Z,5.13
2019-05-05T09:42:38.718Z,1.50
2019-05-05T09:47:46.089Z,1.47
2019-05-05T09:52:53.660Z,1.27
2019-05-05T09:58:00.865Z,3.43
2019-05-05T10:03:08.094Z,1.30
2019-05-05T10:08:15.298Z,21.82
2019-05-05T10:13:23.492Z,15.70
2019-05-05T10:18:30.700Z,1.10
2019-05-05T10:23:39.807Z,6.10
2019-05-05T10:28:53.776Z,6.93
2019-05-05T10:34:04.524Z,1.50
2019-05-05T10:39:19.555Z,3.70
2019-05-05T10:44:26.733Z,4.70
2019-05-05T10:49:33.957Z,1.70
2019-05-05T10:54:44.637Z,1.13
2019-05-05T10:59:49.801Z,1.07
2019-05-05T11:04:59.546Z,1.30
2019-05-05T11:10:07.245Z,2.70
2019-05-05T11:15:14.581Z,1.57
2019-05-05T11:20:24.740Z,0.88
2019-05-05T11:25:33.535Z,1.03
2019-05-05T11:30:43.324Z,0.90
2019-05-05T11:35:57.166Z,1.20
2019-05-05T11:41:04.918Z,1.00
2019-05-05T11:46:14.095Z,1.10
2019-05-05T11:51:21.624Z,1.10
2019-05-05T11:56:28.831Z,0.87
2019-05-05T12:01:35.914Z,1.10
2019-05-05T12:06:44.304Z,1.27
2019-05-05T12:11:51.573Z,1.20
2019-05-05T12:16:58.706Z,1.37
2019-05-05T12:22:06.151Z,1.00
2019-05-05T12:27:35.004Z,1.40
2019-05-05T12:32:43.748Z,1.10
2019-05-05T12:37:51.077Z,0.93
2019-05-05T12:42:58.236Z,1.33
2019-05-05T12:48:19.785Z,0.90
2019-05-05T12:53:27.022Z,0.83
2019-05-05T12:58:34.265Z,1.07
2019-05-05T13:03:41.765Z,0.90
2019-05-05T13:08:50.140Z,1.13
2019-05-05T13:13:57.457Z,2.60
2019-05-05T13:19:10.373Z,1.10
2019-05-05T13:24:39.235Z,1.10
2019-05-05T13:29:46.297Z,1.03
2019-05-05T13:34:54.542Z,1.00
2019-05-05T13:40:01.810Z,1.00
2019-05-05T13:45:27.329Z,0.93
2019-05-05T13:50:37.885Z,1.93
2019-05-05T13:55:46.095Z,1.30
2019-05-05T14:00:54.629Z,1.00
2019-05-05T14:06:01.721Z,0.90
2019-05-05T14:11:09.038Z,1.10
2019-05-05T14:16:16.359Z,1.00
2019-05-05T14:21:24.510Z,0.80
2019-05-05T14:26:35.164Z,0.93
2019-05-05T14:31:41.752Z,1.00
2019-05-05T14:37:07.714Z,1.10
2019-05-05T14:42:15.803Z,1.07
2019-05-05T14:47:24.541Z,0.83
2019-05-05T14:52:32.787Z,1.30
2019-05-05T14:57:40.010Z,1.50
2019-05-05T15:02:47.116Z,1.10
2019-05-05T15:08:13.601Z,1.10
2019-05-05T15:13:24.132Z,1.83
2019-05-05T15:18:31.102Z,1.17
2019-05-05T15:23:38.401Z,1.10
2019-05-05T15:28:58.660Z,1.50
2019-05-05T15:33:54.202Z,1.03
2019-05-05T15:39:01.343Z,1.20
2019-05-05T15:44:10.023Z,1.17
2019-05-05T15:49:17.212Z,1.25
2019-05-05T15:54:24.627Z,3.00
2019-05-05T15:59:31.723Z,1.13
2019-05-05T16:04:38.772Z,1.00
2019-05-05T16:09:46.743Z,1.67
2019-05-05T16:15:06.321Z,1.30
2019-05-05T16:20:17.642Z,6.97
2019-05-05T16:25:25.068Z,3.53
2019-05-05T16:30:33.855Z,2.00
2019-05-05T16:35:41.127Z,1.30
2019-05-05T16:40:48.312Z,1.03
2019-05-05T16:45:55.521Z,1.07
2019-05-05T16:51:03.426Z,0.80
2019-05-05T16:56:13.996Z,1.30
2019-05-05T17:01:21.274Z,1.50
2019-05-05T17:06:30.435Z,1.03
2019-05-05T17:11:37.845Z,4.67
2019-05-05T17:17:03.852Z,1.60
2019-05-05T17:22:18.139Z,3.58
2019-05-05T17:27:25.779Z,1.10
2019-05-05T17:32:34.503Z,1.23
2019-05-05T17:37:41.883Z,1.20
2019-05-05T17:43:23.954Z,1.20
2019-05-05T17:48:41.350Z,1.23
2019-05-05T17:54:16.701Z,1.27
2019-05-05T17:59:23.810Z,1.50
2019-05-05T18:04:31.234Z,1.03
2019-05-05T18:09:56.205Z,1.20
2019-05-05T18:15:04.780Z,1.53
2019-05-05T18:20:12.199Z,1.60
2019-05-05T18:25:19.249Z,1.27
2019-05-05T18:30:26.322Z,1.50
2019-05-05T18:35:33.904Z,1.17
2019-05-05T18:40:43.299Z,1.13
2019-05-05T18:46:01.218Z,1.10
2019-05-05T18:51:08.267Z,1.30
2019-05-05T18:56:15.506Z,1.60
2019-05-05T19:01:41.822Z,1.50
2019-05-05T19:07:08.019Z,1.30
2019-05-05T19:12:17.573Z,8.23
2019-05-05T19:17:24.807Z,27.07
2019-05-05T19:22:33.853Z,36.87
2019-05-05T19:27:40.853Z,27.90
2019-05-05T19:32:48.061Z,29.03
2019-05-05T19:37:55.136Z,27.60
2019-05-05T19:43:04.576Z,36.60
2019-05-05T19:48:11.010Z,24.07
2019-05-05T19:53:25.064Z,26.73
2019-05-05T19:58:34.067Z,49.73
2019-05-05T20:03:43.825Z,41.73
2019-05-05T20:08:50.510Z,32.77
2019-05-05T20:14:06.637Z,43.23
2019-05-05T20:19:06.466Z,40.77
2019-05-05T20:24:14.539Z,35.43
2019-05-05T20:29:23.884Z,27.90
2019-05-05T20:34:41.873Z,26.83
2019-05-05T20:39:49.310Z,27.67
2019-05-05T20:44:56.450Z,29.37
2019-05-05T20:50:04.814Z,23.83
2019-05-05T20:55:14.117Z,21.80
2019-05-05T21:00:21.391Z,23.87
2019-05-05T21:05:28.575Z,21.63
2019-05-05T21:10:35.850Z,20.70
2019-05-05T21:15:45.049Z,19.47
2019-05-05T21:20:51.647Z,19.10
2019-05-05T21:26:07.699Z,18.33
2019-05-05T21:31:15.727Z,16.30
2019-05-05T21:36:24.335Z,14.95
2019-05-05T21:41:33.827Z,14.10
2019-05-05T21:46:40.637Z,14.60
2019-05-05T21:52:05.860Z,15.60
2019-05-05T21:57:30.758Z,15.10
2019-05-05T22:02:38.169Z,15.30
2019-05-05T22:07:45.251Z,14.97
2019-05-05T22:12:55.698Z,16.67
2019-05-05T22:18:03.696Z,20.57
2019-05-05T22:23:10.916Z,20.07
2019-05-05T22:28:18.170Z,23.17
2019-05-05T22:33:25.210Z,28.52
2019-05-05T22:38:34.013Z,31.12
2019-05-05T22:43:44.273Z,35.47
2019-05-05T22:48:51.194Z,39.57
2019-05-05T22:53:58.309Z,43.30
2019-05-05T22:59:06.101Z,56.73
2019-05-05T23:04:43.699Z,62.23
2019-05-05T23:09:53.892Z,72.20
2019-05-05T23:15:01.401Z,83.27
2019-05-05T23:20:34.000Z,76.77
2019-05-05T23:25:45.585Z,78.23
2019-05-05T23:30:51.704Z,73.70
2019-05-05T23:35:58.829Z,75.60
2019-05-05T23:41:06.440Z,73.03
2019-05-05T23:46:14.421Z,68.43
2019-05-05T23:51:24.060Z,71.93
2019-05-05T23:56:30.368Z,67.47
